Time;durP1;ratioP1;P1;durP2;ratioP2;P2;SDS_P1;SDS_P2;PMS_P1;PMS_P2;Temp;Humidity;BMP_temperature;BMP_pressure;BME280_temperature;BME280_humidity;BME280_pressure;Samples;Min_cycle;Max_cycle;Signal;HPM_P1;HPM_P2
2023/04/03 00:02:04;;;;;;;0.00;0.00;;;4.30;99.90;;;;;;20461829;29;20039;-50
2023/04/03 00:12:06;;;;;;;0.00;0.00;;;4.30;99.90;;;;;;20454615;29;20486;-51
2023/04/03 00:22:07;;;;;;;0.10;0.00;;;3.70;99.90;;;;;;20421448;29;20043;-46
2023/04/03 00:32:09;;;;;;;0.45;0.00;;;3.50;99.90;;;;;;20452648;29;20031;-48
2023/04/03 00:42:11;;;;;;;0.08;0.00;;;3.60;99.90;;;;;;20446741;29;20031;-51
2023/04/03 00:52:17;;;;;;;0.03;0.00;;;4.60;99.90;;;;;;20406642;29;20036;-50
2023/04/03 01:02:19;;;;;;;0.10;0.00;;;4.50;99.90;;;;;;20421745;28;20504;-51
2023/04/03 01:12:33;;;;;;;1.10;0.00;;;4.20;99.90;;;;;;20421317;29;20075;-51
2023/04/03 01:22:55;;;;;;;0.10;0.00;;;4.40;99.90;;;;;;20417125;29;20028;-51
2023/04/03 01:32:57;;;;;;;0.05;0.00;;;4.50;99.90;;;;;;20470158;29;20035;-48
2023/04/03 01:42:59;;;;;;;0.00;0.00;;;4.40;99.90;;;;;;20434947;29;20040;-49
2023/04/03 01:53:01;;;;;;;0.10;0.00;;;4.20;99.90;;;;;;20402954;29;20043;-49
2023/04/03 02:03:03;;;;;;;0.00;0.00;;;3.70;99.90;;;;;;20444417;29;20120;-48
2023/04/03 02:13:05;;;;;;;0.00;0.00;;;3.30;99.90;;;;;;20443226;29;20043;-51
2023/04/03 02:23:07;;;;;;;0.00;0.00;;;2.80;99.90;;;;;;20430179;29;20060;-51
2023/04/03 02:33:09;;;;;;;0.10;0.00;;;2.90;99.90;;;;;;20469472;29;20031;-51
2023/04/03 02:43:11;;;;;;;0.10;0.00;;;3.30;99.90;;;;;;20452601;29;20103;-51
2023/04/03 02:53:13;;;;;;;0.00;0.00;;;3.40;99.90;;;;;;20430826;29;20114;-46
2023/04/03 03:03:15;;;;;;;0.20;0.00;;;4.10;99.90;;;;;;20431217;29;20048;-48
2023/04/03 03:13:17;;;;;;;0.10;0.00;;;3.60;99.90;;;;;;20430272;29;20473;-50
2023/04/03 03:23:19;;;;;;;0.00;0.00;;;2.80;99.90;;;;;;20407262;29;20040;-47
2023/04/03 03:33:20;;;;;;;0.00;0.00;;;3.60;99.90;;;;;;20463680;29;20086;-51
2023/04/03 03:43:22;;;;;;;0.10;0.00;;;3.80;99.90;;;;;;20446164;29;20036;-52
2023/04/03 03:53:26;;;;;;;0.10;0.00;;;3.40;99.90;;;;;;20427083;29;20044;-46
2023/04/03 04:03:31;;;;;;;0.00;0.00;;;3.40;99.90;;;;;;20471350;28;20040;-49
2023/04/03 04:13:33;;;;;;;0.00;0.00;;;3.00;99.90;;;;;;20442298;29;20414;-47
2023/04/03 04:23:35;;;;;;;0.00;0.00;;;3.20;99.90;;;;;;20403602;29;20389;-48
2023/04/03 04:33:37;;;;;;;0.00;0.00;;;3.00;99.90;;;;;;20422145;29;20043;-49
2023/04/03 04:43:40;;;;;;;0.10;0.00;;;3.00;99.90;;;;;;20435939;29;20032;-49
2023/04/03 04:53:44;;;;;;;0.00;0.00;;;2.90;99.90;;;;;;20430702;29;20035;-51
2023/04/03 05:03:49;;;;;;;0.10;0.00;;;3.00;99.90;;;;;;20466947;29;20087;-51
2023/04/03 05:13:52;;;;;;;0.00;0.00;;;3.40;99.90;;;;;;20433180;29;20060;-46
2023/04/03 05:23:55;;;;;;;0.00;0.00;;;3.80;99.90;;;;;;20397046;29;20119;-50
2023/04/03 05:33:57;;;;;;;0.00;0.00;;;3.80;99.90;;;;;;20454083;29;20031;-47
2023/04/03 05:44:01;;;;;;;0.00;0.00;;;4.10;99.90;;;;;;20476406;29;20493;-49
2023/04/03 05:54:17;;;;;;;0.77;0.05;;;4.40;99.90;;;;;;20454230;28;20032;-51
2023/04/03 06:04:20;;;;;;;0.00;0.00;;;4.70;98.30;;;;;;20418320;29;20047;-48
2023/04/03 06:14:22;;;;;;;0.00;0.00;;;4.90;98.00;;;;;;20401411;29;20107;-57
2023/04/03 06:24:25;;;;;;;0.00;0.00;;;4.90;97.60;;;;;;20396356;29;20079;-51
2023/04/03 06:34:27;;;;;;;0.00;0.00;;;5.10;96.70;;;;;;20455947;29;20054;-51
2023/04/03 06:44:28;;;;;;;0.00;0.00;;;5.10;95.80;;;;;;20480143;29;20039;-51
2023/04/03 06:54:30;;;;;;;0.03;0.00;;;6.00;95.00;;;;;;20453554;29;20056;-51
2023/04/03 07:04:32;;;;;;;0.00;0.00;;;6.80;93.80;;;;;;20427689;29;20036;-52
2023/04/03 07:14:34;;;;;;;0.00;0.00;;;7.00;91.80;;;;;;20429506;29;20485;-48
2023/04/03 07:24:36;;;;;;;0.00;0.00;;;7.30;91.30;;;;;;20425114;29;20044;-50
2023/04/03 07:34:37;;;;;;;0.05;0.00;;;7.50;90.80;;;;;;20491526;29;20466;-48
2023/04/03 07:44:40;;;;;;;0.00;0.00;;;8.00;89.40;;;;;;20435815;29;20114;-49
2023/04/03 07:54:42;;;;;;;0.00;0.00;;;8.20;89.90;;;;;;20426850;29;20493;-50
2023/04/03 08:04:43;;;;;;;0.00;0.00;;;8.50;88.70;;;;;;20458317;29;20161;-52
2023/04/03 08:14:45;;;;;;;0.00;0.00;;;8.70;87.60;;;;;;20488178;28;20035;-50
2023/04/03 08:24:46;;;;;;;0.00;0.00;;;8.90;83.40;;;;;;20453171;29;20091;-50
2023/04/03 08:34:48;;;;;;;0.00;0.00;;;9.10;84.50;;;;;;20406911;29;20035;-59
2023/04/03 08:45:25;;;;;;;0.00;0.00;;;9.40;88.00;;;;;;20423078;29;20040;-60
2023/04/03 08:55:34;;;;;;;0.15;0.00;;;9.70;83.30;;;;;;20422116;29;20035;-50
2023/04/03 09:05:51;;;;;;;0.00;0.00;;;10.30;78.20;;;;;;20470158;29;20039;-47
2023/04/03 09:15:54;;;;;;;0.68;0.30;;;10.00;78.40;;;;;;20484392;29;20063;-50
2023/04/03 09:26:35;;;;;;;7.10;1.23;;;10.80;90.80;;;;;;20441685;29;20039;-52
2023/04/03 09:36:42;;;;;;;2.50;1.88;;;12.40;99.70;;;;;;20175881;29;20395;-51
2023/04/03 09:46:44;;;;;;;4.65;2.00;;;13.20;98.50;;;;;;20176231;29;20481;-58
2023/04/03 09:56:50;;;;;;;4.50;2.05;;;11.30;99.90;;;;;;20175040;29;20078;-49
2023/04/03 10:06:54;;;;;;;3.25;2.20;;;10.50;99.90;;;;;;20234812;29;20321;-51
2023/04/03 10:17:28;;;;;;;6.13;2.65;;;10.00;99.90;;;;;;20419535;29;20437;-50
2023/04/03 10:27:55;;;;;;;6.22;2.92;;;10.10;99.90;;;;;;20413762;29;20044;-47
2023/04/03 10:38:15;;;;;;;5.80;3.20;;;9.70;99.90;;;;;;20481671;28;20091;-51
2023/04/03 10:48:35;;;;;;;4.47;3.22;;;10.00;99.90;;;;;;20433082;29;20031;-52
2023/04/03 10:58:48;;;;;;;3.63;3.13;;;9.70;99.90;;;;;;20431042;29;20040;-47
2023/04/03 11:08:57;;;;;;;7.93;4.03;;;8.90;99.90;;;;;;20450642;29;20345;-59
2023/04/03 11:18:59;;;;;;;6.63;3.53;;;9.20;99.90;;;;;;20502813;29;20371;-49
2023/04/03 11:29:06;;;;;;;5.38;3.17;;;9.80;99.90;;;;;;20439160;29;20039;-48
2023/04/03 11:39:28;;;;;;;4.95;3.40;;;10.30;99.90;;;;;;20426482;29;20087;-51
2023/04/03 11:49:56;;;;;;;7.65;3.70;;;9.80;99.90;;;;;;20427387;29;20123;-48
2023/04/03 11:59:57;;;;;;;5.03;3.72;;;8.70;99.90;;;;;;20452029;29;20043;-58
2023/04/03 12:10:00;;;;;;;6.18;3.90;;;8.20;99.90;;;;;;20419289;29;20577;-49
2023/04/03 12:20:21;;;;;;;6.25;4.30;;;8.80;99.90;;;;;;20360274;29;20087;-59
2023/04/03 12:30:27;;;;;;;9.30;4.15;;;9.20;99.90;;;;;;20420680;29;20560;-59
2023/04/03 12:40:42;;;;;;;4.80;3.70;;;9.10;99.90;;;;;;20422679;29;20118;-59
2023/04/03 12:50:46;;;;;;;5.35;3.53;;;9.20;99.90;;;;;;20422404;29;20102;-51
2023/04/03 13:01:08;;;;;;;5.63;3.78;;;9.50;99.90;;;;;;20412876;29;20035;-47
2023/04/03 13:11:11;;;;;;;5.85;3.78;;;9.30;99.90;;;;;;20446167;29;20051;-57
2023/04/03 13:21:21;;;;;;;7.97;3.83;;;8.70;99.90;;;;;;20482123;29;20393;-58
2023/04/03 13:31:30;;;;;;;7.03;3.78;;;8.30;99.90;;;;;;20419868;29;20035;-51
2023/04/03 13:41:36;;;;;;;7.93;4.25;;;8.10;99.90;;;;;;20418748;29;20035;-52
2023/04/03 13:51:38;;;;;;;8.30;4.50;;;8.10;99.90;;;;;;20418507;29;20473;-59
2023/04/03 14:01:46;;;;;;;11.77;5.00;;;7.60;99.90;;;;;;20458004;29;20042;-58
2023/04/03 14:11:52;;;;;;;7.28;4.63;;;7.30;99.90;;;;;;20457669;28;20051;-58
2023/04/03 14:21:55;;;;;;;9.07;4.70;;;7.30;99.90;;;;;;20430152;29;20095;-50
2023/04/03 14:31:57;;;;;;;7.88;4.10;;;7.00;99.90;;;;;;20459108;29;20306;-50
2023/04/03 14:41:58;;;;;;;8.85;4.85;;;6.80;99.90;;;;;;20461834;29;20441;-47
2023/04/03 14:52:00;;;;;;;9.90;4.63;;;6.60;99.90;;;;;;20432503;29;20348;-48
2023/04/03 15:02:02;;;;;;;9.55;4.63;;;6.00;99.90;;;;;;20430012;29;20032;-50
2023/04/03 15:12:04;;;;;;;7.25;4.50;;;5.70;99.90;;;;;;20457547;29;20126;-49
2023/04/03 15:22:06;;;;;;;8.30;4.20;;;5.60;99.90;;;;;;20431244;29;20415;-52
2023/04/03 15:32:08;;;;;;;10.38;4.95;;;5.70;99.90;;;;;;20459388;29;20043;-58
2023/04/03 15:42:12;;;;;;;12.38;4.97;;;5.70;99.90;;;;;;20455823;29;20565;-50
2023/04/03 15:52:13;;;;;;;10.25;4.68;;;5.70;99.90;;;;;;20434947;29;20099;-51
2023/04/03 16:02:15;;;;;;;10.73;4.32;;;5.60;99.90;;;;;;20502172;29;20051;-52
2023/04/03 16:12:16;;;;;;;11.52;4.68;;;5.50;99.90;;;;;;20438463;29;20048;-49
2023/04/03 16:22:18;;;;;;;10.65;4.78;;;5.30;99.90;;;;;;20420996;29;20039;-58
2023/04/03 16:32:20;;;;;;;13.20;5.10;;;4.90;99.90;;;;;;20422348;29;20468;-51
2023/04/03 16:42:22;;;;;;;13.52;5.15;;;4.60;99.90;;;;;;20454071;29;20082;-49
2023/04/03 16:52:23;;;;;;;10.25;4.47;;;4.60;99.90;;;;;;20422650;29;20036;-49
2023/04/03 17:02:26;;;;;;;11.40;5.00;;;4.50;99.90;;;;;;20484453;29;20135;-51
2023/04/03 17:12:27;;;;;;;10.70;5.20;;;4.50;99.90;;;;;;20446853;29;20056;-51
2023/04/03 17:22:29;;;;;;;8.23;4.57;;;4.50;99.90;;;;;;20416572;29;20027;-50
2023/04/03 17:32:31;;;;;;;7.90;4.65;;;4.40;99.90;;;;;;20418087;29;20043;-48
2023/04/03 17:42:33;;;;;;;7.93;4.30;;;4.40;99.90;;;;;;20432344;28;20384;-50
2023/04/03 17:52:35;;;;;;;9.48;4.38;;;4.30;99.90;;;;;;20418660;29;20083;-51
2023/04/03 18:02:36;;;;;;;12.95;4.95;;;4.20;99.90;;;;;;20437125;29;20047;-51
2023/04/03 18:12:39;;;;;;;9.48;4.60;;;4.10;99.90;;;;;;20439137;29;20098;-51
2023/04/03 18:22:41;;;;;;;9.15;5.32;;;4.00;99.90;;;;;;20418964;29;20036;-47
2023/04/03 18:32:42;;;;;;;7.43;3.78;;;3.70;99.90;;;;;;20456110;29;20385;-59
2023/04/03 18:42:44;;;;;;;7.32;3.53;;;3.70;99.90;;;;;;20474682;29;20035;-48
2023/04/03 18:52:49;;;;;;;11.43;3.42;;;3.60;99.90;;;;;;20471170;29;20102;-49
2023/04/03 19:02:51;;;;;;;5.55;2.83;;;3.40;99.90;;;;;;20430842;28;20031;-48
2023/04/03 19:12:52;;;;;;;8.20;2.70;;;3.10;99.90;;;;;;20412258;29;20797;-49
2023/04/03 19:22:54;;;;;;;10.00;3.10;;;2.60;99.90;;;;;;20425289;29;20035;-51
2023/04/03 19:32:56;;;;;;;9.98;3.75;;;1.80;99.90;;;;;;20478098;29;20078;-48
2023/04/03 19:42:57;;;;;;;9.00;4.05;;;1.00;99.90;;;;;;20449298;29;20040;-51
2023/04/03 19:53:00;;;;;;;10.77;4.38;;;0.50;99.90;;;;;;20426777;29;20032;-58
2023/04/03 20:03:02;;;;;;;3.72;2.20;;;0.20;99.90;;;;;;20443993;29;20040;-58
2023/04/03 20:13:07;;;;;;;5.68;2.08;;;0.50;99.90;;;;;;20419168;29;20039;-48
2023/04/03 20:23:11;;;;;;;5.03;1.58;;;1.30;99.90;;;;;;20421748;29;20044;-49
2023/04/03 20:33:13;;;;;;;1.67;0.80;;;1.70;99.90;;;;;;20458929;29;20166;-51
2023/04/03 20:43:16;;;;;;;1.23;0.50;;;1.70;99.90;;;;;;20442279;29;20047;-50
2023/04/03 20:53:18;;;;;;;2.00;0.60;;;1.70;99.10;;;;;;20422641;29;20115;-48
2023/04/03 21:03:20;;;;;;;1.13;0.32;;;1.70;97.70;;;;;;20421501;29;20040;-45
2023/04/03 21:14:00;;;;;;;0.35;0.20;;;1.30;96.90;;;;;;20403260;29;20032;-58
2023/04/03 21:24:05;;;;;;;2.30;0.30;;;1.10;94.20;;;;;;20414937;29;20047;-46
2023/04/03 21:34:07;;;;;;;2.67;0.30;;;1.10;96.30;;;;;;20478034;29;20039;-51
2023/04/03 21:44:09;;;;;;;0.32;0.20;;;0.90;93.80;;;;;;20430520;29;20031;-47
2023/04/03 21:54:10;;;;;;;0.85;0.22;;;1.00;92.70;;;;;;20418473;29;20032;-51
2023/04/03 22:04:12;;;;;;;0.55;0.30;;;0.50;93.90;;;;;;20469815;29;20036;-52
2023/04/03 22:14:13;;;;;;;0.90;0.25;;;0.30;93.80;;;;;;20430036;29;20477;-48
2023/04/03 22:24:17;;;;;;;1.48;0.40;;;-0.20;95.10;;;;;;20397136;29;20036;-49
2023/04/03 22:34:20;;;;;;;2.17;0.45;;;-0.30;95.50;;;;;;20472382;29;20121;-51
2023/04/03 22:44:22;;;;;;;1.10;0.43;;;-0.70;97.70;;;;;;20443057;29;20122;-49
2023/04/03 22:54:24;;;;;;;2.28;0.20;;;-1.10;97.50;;;;;;20431685;29;20040;-48
2023/04/03 23:04:25;;;;;;;0.85;0.40;;;-1.10;96.80;;;;;;20430999;29;20039;-49
2023/04/03 23:14:27;;;;;;;0.45;0.25;;;-0.70;96.40;;;;;;20429882;29;20067;-54
2023/04/03 23:24:28;;;;;;;0.52;0.30;;;-1.10;96.70;;;;;;20425907;29;20044;-48
2023/04/03 23:34:30;;;;;;;1.70;0.38;;;-0.70;95.10;;;;;;20491479;29;20429;-50
2023/04/03 23:44:31;;;;;;;0.50;0.30;;;-0.70;95.00;;;;;;20437201;29;20036;-46
2023/04/03 23:54:33;;;;;;;0.63;0.32;;;-0.80;93.00;;;;;;20427099;29;20095;-58
